sensor_id;sensor_type;location;lat;lon;timestamp;P1;durP1;ratioP1;P2;durP2;ratioP2
9500;SDS011;4788;52.438;9.846;2023-02-15T00:00:33;26.10;;;22.90;;
9500;SDS011;4788;52.438;9.846;2023-02-15T00:02:59;41.33;;;32.50;;
9500;SDS011;4788;52.438;9.846;2023-02-15T00:05:25;27.83;;;24.57;;
9500;SDS011;4788;52.438;9.846;2023-02-15T00:07:51;32.60;;;29.10;;
9500;SDS011;4788;52.438;9.846;2023-02-15T00:10:17;25.13;;;22.47;;
9500;SDS011;4788;52.438;9.846;2023-02-15T00:12:43;26.07;;;23.43;;
9500;SDS011;4788;52.438;9.846;2023-02-15T00:15:09;33.20;;;29.60;;
9500;SDS011;4788;52.438;9.846;2023-02-15T00:17:37;27.13;;;24.27;;
9500;SDS011;4788;52.438;9.846;2023-02-15T00:20:03;31.93;;;27.37;;
9500;SDS011;4788;52.438;9.846;2023-02-15T00:22:29;29.30;;;23.80;;
9500;SDS011;4788;52.438;9.846;2023-02-15T00:24:55;25.20;;;22.43;;
9500;SDS011;4788;52.438;9.846;2023-02-15T00:27:21;32.70;;;26.20;;
9500;SDS011;4788;52.438;9.846;2023-02-15T00:29:47;41.87;;;31.70;;
9500;SDS011;4788;52.438;9.846;2023-02-15T00:32:13;26.73;;;23.77;;
9500;SDS011;4788;52.438;9.846;2023-02-15T00:34:39;30.63;;;27.13;;
9500;SDS011;4788;52.438;9.846;2023-02-15T00:37:05;26.53;;;23.70;;
9500;SDS011;4788;52.438;9.846;2023-02-15T00:39:31;23.93;;;21.63;;
9500;SDS011;4788;52.438;9.846;2023-02-15T00:41:57;37.97;;;30.40;;
9500;SDS011;4788;52.438;9.846;2023-02-15T00:44:23;27.87;;;23.70;;
9500;SDS011;4788;52.438;9.846;2023-02-15T00:46:49;25.67;;;22.83;;
9500;SDS011;4788;52.438;9.846;2023-02-15T00:49:15;26.73;;;23.97;;
9500;SDS011;4788;52.438;9.846;2023-02-15T00:51:41;24.47;;;22.03;;
9500;SDS011;4788;52.438;9.846;2023-02-15T00:54:07;33.83;;;29.03;;
9500;SDS011;4788;52.438;9.846;2023-02-15T00:56:33;30.13;;;26.50;;
9500;SDS011;4788;52.438;9.846;2023-02-15T00:58:59;25.67;;;22.87;;
9500;SDS011;4788;52.438;9.846;2023-02-15T01:01:25;25.73;;;22.50;;
9500;SDS011;4788;52.438;9.846;2023-02-15T01:03:51;44.97;;;34.13;;
9500;SDS011;4788;52.438;9.846;2023-02-15T01:06:17;29.37;;;25.07;;
9500;SDS011;4788;52.438;9.846;2023-02-15T01:08:43;39.43;;;31.40;;
9500;SDS011;4788;52.438;9.846;2023-02-15T01:11:14;33.03;;;26.67;;
9500;SDS011;4788;52.438;9.846;2023-02-15T01:13:40;29.40;;;24.43;;
9500;SDS011;4788;52.438;9.846;2023-02-15T01:16:07;26.43;;;22.47;;
9500;SDS011;4788;52.438;9.846;2023-02-15T01:18:33;30.97;;;25.97;;
9500;SDS011;4788;52.438;9.846;2023-02-15T01:21:00;29.30;;;25.50;;
9500;SDS011;4788;52.438;9.846;2023-02-15T01:23:26;23.00;;;20.70;;
9500;SDS011;4788;52.438;9.846;2023-02-15T01:25:52;27.77;;;24.57;;
9500;SDS011;4788;52.438;9.846;2023-02-15T01:28:18;25.73;;;22.97;;
9500;SDS011;4788;52.438;9.846;2023-02-15T01:30:43;24.50;;;21.90;;
9500;SDS011;4788;52.438;9.846;2023-02-15T01:33:10;27.87;;;24.53;;
9500;SDS011;4788;52.438;9.846;2023-02-15T01:35:42;27.13;;;24.23;;
9500;SDS011;4788;52.438;9.846;2023-02-15T01:38:08;36.60;;;30.17;;
9500;SDS011;4788;52.438;9.846;2023-02-15T01:40:34;29.53;;;24.63;;
9500;SDS011;4788;52.438;9.846;2023-02-15T01:43:00;30.70;;;27.40;;
9500;SDS011;4788;52.438;9.846;2023-02-15T01:45:27;39.23;;;32.00;;
9500;SDS011;4788;52.438;9.846;2023-02-15T01:48:01;34.83;;;28.23;;
9500;SDS011;4788;52.438;9.846;2023-02-15T01:50:28;31.40;;;26.27;;
9500;SDS011;4788;52.438;9.846;2023-02-15T01:52:57;25.97;;;22.70;;
9500;SDS011;4788;52.438;9.846;2023-02-15T01:55:25;32.30;;;26.77;;
9500;SDS011;4788;52.438;9.846;2023-02-15T01:57:52;27.77;;;24.97;;
9500;SDS011;4788;52.438;9.846;2023-02-15T02:00:18;21.77;;;19.77;;
9500;SDS011;4788;52.438;9.846;2023-02-15T02:02:45;23.00;;;20.83;;
9500;SDS011;4788;52.438;9.846;2023-02-15T02:05:11;26.23;;;23.50;;
9500;SDS011;4788;52.438;9.846;2023-02-15T02:07:39;19.90;;;18.10;;
9500;SDS011;4788;52.438;9.846;2023-02-15T02:10:06;58.20;;;41.63;;
9500;SDS011;4788;52.438;9.846;2023-02-15T02:12:33;65.27;;;39.37;;
9500;SDS011;4788;52.438;9.846;2023-02-15T02:14:59;63.00;;;40.40;;
9500;SDS011;4788;52.438;9.846;2023-02-15T02:17:36;93.63;;;51.60;;
9500;SDS011;4788;52.438;9.846;2023-02-15T02:33:31;48.60;;;34.30;;
9500;SDS011;4788;52.438;9.846;2023-02-15T02:44:10;49.87;;;34.13;;
9500;SDS011;4788;52.438;9.846;2023-02-15T02:46:51;68.77;;;43.90;;
9500;SDS011;4788;52.438;9.846;2023-02-15T02:49:29;78.43;;;47.77;;
9500;SDS011;4788;52.438;9.846;2023-02-15T02:51:59;60.73;;;37.80;;
9500;SDS011;4788;52.438;9.846;2023-02-15T02:54:25;63.33;;;38.90;;
9500;SDS011;4788;52.438;9.846;2023-02-15T02:56:51;53.67;;;33.53;;
9500;SDS011;4788;52.438;9.846;2023-02-15T02:59:26;53.27;;;35.40;;
9500;SDS011;4788;52.438;9.846;2023-02-15T03:02:05;41.80;;;28.77;;
9500;SDS011;4788;52.438;9.846;2023-02-15T03:04:35;43.17;;;31.00;;
9500;SDS011;4788;52.438;9.846;2023-02-15T03:07:04;34.83;;;25.90;;
9500;SDS011;4788;52.438;9.846;2023-02-15T03:09:33;33.47;;;25.47;;
9500;SDS011;4788;52.438;9.846;2023-02-15T03:12:06;37.17;;;27.17;;
9500;SDS011;4788;52.438;9.846;2023-02-15T03:14:32;34.83;;;26.57;;
9500;SDS011;4788;52.438;9.846;2023-02-15T03:16:58;39.20;;;28.97;;
9500;SDS011;4788;52.438;9.846;2023-02-15T03:19:26;48.77;;;34.97;;
9500;SDS011;4788;52.438;9.846;2023-02-15T03:21:58;136.93;;;79.47;;
9500;SDS011;4788;52.438;9.846;2023-02-15T03:24:38;82.17;;;46.60;;
9500;SDS011;4788;52.438;9.846;2023-02-15T03:27:06;77.00;;;47.03;;
9500;SDS011;4788;52.438;9.846;2023-02-15T03:29:34;97.20;;;52.77;;
9500;SDS011;4788;52.438;9.846;2023-02-15T03:32:01;121.90;;;57.00;;
9500;SDS011;4788;52.438;9.846;2023-02-15T03:34:28;104.90;;;51.53;;
9500;SDS011;4788;52.438;9.846;2023-02-15T03:39:27;65.57;;;41.73;;
9500;SDS011;4788;52.438;9.846;2023-02-15T03:44:49;49.53;;;34.13;;
9500;SDS011;4788;52.438;9.846;2023-02-15T03:47:18;74.13;;;45.73;;
9500;SDS011;4788;52.438;9.846;2023-02-15T03:52:20;60.93;;;39.70;;
9500;SDS011;4788;52.438;9.846;2023-02-15T03:54:47;61.97;;;41.33;;
9500;SDS011;4788;52.438;9.846;2023-02-15T03:57:24;43.20;;;31.03;;
9500;SDS011;4788;52.438;9.846;2023-02-15T04:03:04;37.23;;;28.27;;
9500;SDS011;4788;52.438;9.846;2023-02-15T04:05:32;39.10;;;29.07;;
9500;SDS011;4788;52.438;9.846;2023-02-15T04:07:58;42.83;;;31.00;;
9500;SDS011;4788;52.438;9.846;2023-02-15T04:10:24;38.40;;;28.10;;
9500;SDS011;4788;52.438;9.846;2023-02-15T04:13:20;41.50;;;30.57;;
9500;SDS011;4788;52.438;9.846;2023-02-15T04:15:46;35.60;;;26.23;;
9500;SDS011;4788;52.438;9.846;2023-02-15T04:21:18;42.37;;;30.47;;
9500;SDS011;4788;52.438;9.846;2023-02-15T04:24:03;43.00;;;30.13;;
9500;SDS011;4788;52.438;9.846;2023-02-15T04:26:47;44.80;;;31.67;;
9500;SDS011;4788;52.438;9.846;2023-02-15T04:29:14;41.73;;;29.77;;
9500;SDS011;4788;52.438;9.846;2023-02-15T04:31:40;37.80;;;28.90;;
9500;SDS011;4788;52.438;9.846;2023-02-15T04:34:07;40.07;;;30.03;;
9500;SDS011;4788;52.438;9.846;2023-02-15T04:36:33;48.83;;;35.67;;
9500;SDS011;4788;52.438;9.846;2023-02-15T04:38:59;39.93;;;29.77;;
9500;SDS011;4788;52.438;9.846;2023-02-15T04:41:25;46.17;;;33.27;;
9500;SDS011;4788;52.438;9.846;2023-02-15T04:43:51;35.33;;;26.27;;
9500;SDS011;4788;52.438;9.846;2023-02-15T04:46:17;41.33;;;30.63;;
9500;SDS011;4788;52.438;9.846;2023-02-15T04:48:43;50.60;;;36.17;;
9500;SDS011;4788;52.438;9.846;2023-02-15T04:51:09;42.50;;;32.07;;
9500;SDS011;4788;52.438;9.846;2023-02-15T04:53:35;42.67;;;31.33;;
9500;SDS011;4788;52.438;9.846;2023-02-15T04:56:01;33.93;;;25.97;;
9500;SDS011;4788;52.438;9.846;2023-02-15T04:58:27;45.80;;;34.37;;
9500;SDS011;4788;52.438;9.846;2023-02-15T05:00:56;54.87;;;35.67;;
9500;SDS011;4788;52.438;9.846;2023-02-15T05:03:22;69.93;;;44.27;;
9500;SDS011;4788;52.438;9.846;2023-02-15T05:05:48;108.23;;;57.23;;
9500;SDS011;4788;52.438;9.846;2023-02-15T05:08:14;133.27;;;83.50;;
9500;SDS011;4788;52.438;9.846;2023-02-15T05:10:41;57.57;;;41.10;;
9500;SDS011;4788;52.438;9.846;2023-02-15T05:13:07;59.87;;;42.03;;
9500;SDS011;4788;52.438;9.846;2023-02-15T05:15:33;51.07;;;36.13;;
9500;SDS011;4788;52.438;9.846;2023-02-15T05:17:59;49.47;;;34.80;;
9500;SDS011;4788;52.438;9.846;2023-02-15T05:20:26;47.83;;;34.70;;
9500;SDS011;4788;52.438;9.846;2023-02-15T05:22:55;58.93;;;41.77;;
9500;SDS011;4788;52.438;9.846;2023-02-15T05:25:21;50.73;;;37.93;;
9500;SDS011;4788;52.438;9.846;2023-02-15T05:28:07;43.17;;;32.77;;
9500;SDS011;4788;52.438;9.846;2023-02-15T05:31:06;41.77;;;32.20;;
9500;SDS011;4788;52.438;9.846;2023-02-15T05:33:33;71.93;;;47.70;;
9500;SDS011;4788;52.438;9.846;2023-02-15T05:35:59;52.77;;;37.70;;
9500;SDS011;4788;52.438;9.846;2023-02-15T05:38:25;55.23;;;39.90;;
9500;SDS011;4788;52.438;9.846;2023-02-15T05:40:51;50.67;;;36.27;;
9500;SDS011;4788;52.438;9.846;2023-02-15T05:43:17;53.17;;;38.07;;
9500;SDS011;4788;52.438;9.846;2023-02-15T05:45:44;59.93;;;41.20;;
9500;SDS011;4788;52.438;9.846;2023-02-15T05:48:10;59.37;;;42.13;;
9500;SDS011;4788;52.438;9.846;2023-02-15T05:50:36;51.93;;;37.07;;
9500;SDS011;4788;52.438;9.846;2023-02-15T05:53:02;57.07;;;39.37;;
9500;SDS011;4788;52.438;9.846;2023-02-15T05:55:28;53.73;;;38.40;;
9500;SDS011;4788;52.438;9.846;2023-02-15T05:57:54;52.60;;;37.50;;
9500;SDS011;4788;52.438;9.846;2023-02-15T06:00:20;50.83;;;37.37;;
9500;SDS011;4788;52.438;9.846;2023-02-15T06:02:46;67.97;;;44.60;;
9500;SDS011;4788;52.438;9.846;2023-02-15T06:05:12;57.23;;;39.63;;
9500;SDS011;4788;52.438;9.846;2023-02-15T06:07:38;62.73;;;42.63;;
9500;SDS011;4788;52.438;9.846;2023-02-15T06:10:04;49.13;;;35.93;;
9500;SDS011;4788;52.438;9.846;2023-02-15T06:12:30;65.07;;;43.93;;
9500;SDS011;4788;52.438;9.846;2023-02-15T06:14:56;60.93;;;41.47;;
9500;SDS011;4788;52.438;9.846;2023-02-15T06:17:22;36.13;;;28.20;;
9500;SDS011;4788;52.438;9.846;2023-02-15T06:19:48;19.27;;;11.10;;
9500;SDS011;4788;52.438;9.846;2023-02-15T06:22:14;12.13;;;10.80;;
9500;SDS011;4788;52.438;9.846;2023-02-15T06:24:40;13.67;;;11.53;;
9500;SDS011;4788;52.438;9.846;2023-02-15T06:27:07;8.13;;;7.30;;
9500;SDS011;4788;52.438;9.846;2023-02-15T06:29:34;8.97;;;8.07;;
9500;SDS011;4788;52.438;9.846;2023-02-15T06:31:59;8.83;;;8.07;;
9500;SDS011;4788;52.438;9.846;2023-02-15T06:34:26;9.60;;;8.85;;
9500;SDS011;4788;52.438;9.846;2023-02-15T06:39:17;11.03;;;6.93;;
9500;SDS011;4788;52.438;9.846;2023-02-15T06:41:43;4.87;;;4.37;;
9500;SDS011;4788;52.438;9.846;2023-02-15T06:44:09;10.37;;;9.20;;
9500;SDS011;4788;52.438;9.846;2023-02-15T06:46:35;6.23;;;5.73;;
9500;SDS011;4788;52.438;9.846;2023-02-15T06:49:01;5.17;;;4.77;;
9500;SDS011;4788;52.438;9.846;2023-02-15T06:51:27;4.63;;;4.33;;
9500;SDS011;4788;52.438;9.846;2023-02-15T06:53:53;6.43;;;5.93;;
9500;SDS011;4788;52.438;9.846;2023-02-15T06:56:19;2.07;;;1.97;;
9500;SDS011;4788;52.438;9.846;2023-02-15T06:58:45;5.50;;;5.10;;
9500;SDS011;4788;52.438;9.846;2023-02-15T07:01:13;2.20;;;2.07;;
9500;SDS011;4788;52.438;9.846;2023-02-15T07:03:39;5.83;;;5.33;;
9500;SDS011;4788;52.438;9.846;2023-02-15T07:06:05;3.20;;;3.00;;
9500;SDS011;4788;52.438;9.846;2023-02-15T07:08:33;3.93;;;3.63;;
9500;SDS011;4788;52.438;9.846;2023-02-15T07:10:59;5.33;;;4.93;;
9500;SDS011;4788;52.438;9.846;2023-02-15T07:13:44;5.10;;;4.77;;
9500;SDS011;4788;52.438;9.846;2023-02-15T07:16:10;5.43;;;5.03;;
9500;SDS011;4788;52.438;9.846;2023-02-15T07:18:36;5.13;;;4.73;;
9500;SDS011;4788;52.438;9.846;2023-02-15T07:21:03;4.33;;;4.03;;
9500;SDS011;4788;52.438;9.846;2023-02-15T07:23:29;7.43;;;6.77;;
9500;SDS011;4788;52.438;9.846;2023-02-15T07:25:58;10.50;;;9.60;;
9500;SDS011;4788;52.438;9.846;2023-02-15T07:28:24;5.43;;;5.03;;
9500;SDS011;4788;52.438;9.846;2023-02-15T07:30:50;4.83;;;4.47;;
9500;SDS011;4788;52.438;9.846;2023-02-15T07:33:16;7.60;;;6.93;;
9500;SDS011;4788;52.438;9.846;2023-02-15T07:35:49;20.47;;;18.60;;
9500;SDS011;4788;52.438;9.846;2023-02-15T07:38:15;19.17;;;17.60;;
9500;SDS011;4788;52.438;9.846;2023-02-15T07:40:41;23.43;;;21.20;;
9500;SDS011;4788;52.438;9.846;2023-02-15T07:43:08;24.13;;;21.73;;
9500;SDS011;4788;52.438;9.846;2023-02-15T07:45:34;22.37;;;20.33;;
9500;SDS011;4788;52.438;9.846;2023-02-15T07:48:00;24.20;;;21.90;;
9500;SDS011;4788;52.438;9.846;2023-02-15T07:50:26;24.30;;;22.03;;
9500;SDS011;4788;52.438;9.846;2023-02-15T07:52:52;21.03;;;19.07;;
9500;SDS011;4788;52.438;9.846;2023-02-15T07:55:18;22.97;;;20.83;;
9500;SDS011;4788;52.438;9.846;2023-02-15T07:57:45;20.57;;;18.73;;
9500;SDS011;4788;52.438;9.846;2023-02-15T08:00:12;23.17;;;21.07;;
9500;SDS011;4788;52.438;9.846;2023-02-15T08:02:39;22.67;;;20.50;;
9500;SDS011;4788;52.438;9.846;2023-02-15T08:05:05;25.33;;;22.83;;
9500;SDS011;4788;52.438;9.846;2023-02-15T08:07:31;24.40;;;21.93;;
9500;SDS011;4788;52.438;9.846;2023-02-15T08:09:57;26.03;;;23.43;;
9500;SDS011;4788;52.438;9.846;2023-02-15T08:12:25;21.17;;;19.17;;
9500;SDS011;4788;52.438;9.846;2023-02-15T08:14:52;28.83;;;25.87;;
9500;SDS011;4788;52.438;9.846;2023-02-15T08:17:17;28.13;;;25.13;;
9500;SDS011;4788;52.438;9.846;2023-02-15T08:19:43;30.83;;;27.50;;
9500;SDS011;4788;52.438;9.846;2023-02-15T08:22:12;25.03;;;22.47;;
9500;SDS011;4788;52.438;9.846;2023-02-15T08:24:38;27.23;;;24.43;;
9500;SDS011;4788;52.438;9.846;2023-02-15T08:27:06;26.67;;;23.93;;
9500;SDS011;4788;52.438;9.846;2023-02-15T08:29:32;27.63;;;24.67;;
9500;SDS011;4788;52.438;9.846;2023-02-15T08:32:00;26.00;;;23.23;;
9500;SDS011;4788;52.438;9.846;2023-02-15T08:34:34;30.10;;;26.43;;
9500;SDS011;4788;52.438;9.846;2023-02-15T08:37:00;29.10;;;24.93;;
9500;SDS011;4788;52.438;9.846;2023-02-15T08:39:26;30.77;;;27.47;;
9500;SDS011;4788;52.438;9.846;2023-02-15T08:41:52;22.73;;;20.63;;
9500;SDS011;4788;52.438;9.846;2023-02-15T08:44:18;26.00;;;23.50;;
9500;SDS011;4788;52.438;9.846;2023-02-15T08:46:45;20.13;;;18.40;;
9500;SDS011;4788;52.438;9.846;2023-02-15T08:49:15;24.67;;;22.37;;
9500;SDS011;4788;52.438;9.846;2023-02-15T08:51:43;22.23;;;20.13;;
9500;SDS011;4788;52.438;9.846;2023-02-15T08:54:11;24.97;;;22.63;;
9500;SDS011;4788;52.438;9.846;2023-02-15T08:56:38;22.20;;;20.20;;
9500;SDS011;4788;52.438;9.846;2023-02-15T08:59:05;23.13;;;20.93;;
9500;SDS011;4788;52.438;9.846;2023-02-15T09:01:32;26.77;;;24.17;;
9500;SDS011;4788;52.438;9.846;2023-02-15T09:03:59;25.03;;;22.73;;
9500;SDS011;4788;52.438;9.846;2023-02-15T09:06:25;14.70;;;13.50;;
9500;SDS011;4788;52.438;9.846;2023-02-15T09:08:52;26.20;;;23.50;;
9500;SDS011;4788;52.438;9.846;2023-02-15T09:11:19;27.17;;;24.30;;
9500;SDS011;4788;52.438;9.846;2023-02-15T09:14:07;26.10;;;23.23;;
9500;SDS011;4788;52.438;9.846;2023-02-15T09:16:34;25.67;;;23.03;;
9500;SDS011;4788;52.438;9.846;2023-02-15T09:19:01;23.03;;;20.73;;
9500;SDS011;4788;52.438;9.846;2023-02-15T09:21:27;30.73;;;27.33;;
9500;SDS011;4788;52.438;9.846;2023-02-15T09:23:58;26.87;;;23.97;;
9500;SDS011;4788;52.438;9.846;2023-02-15T09:26:25;30.37;;;26.57;;
9500;SDS011;4788;52.438;9.846;2023-02-15T09:28:52;28.60;;;25.17;;
9500;SDS011;4788;52.438;9.846;2023-02-15T09:31:21;32.80;;;27.17;;
9500;SDS011;4788;52.438;9.846;2023-02-15T09:33:48;30.43;;;26.23;;
9500;SDS011;4788;52.438;9.846;2023-02-15T09:36:18;27.23;;;24.53;;
9500;SDS011;4788;52.438;9.846;2023-02-15T09:38:45;24.83;;;22.27;;
9500;SDS011;4788;52.438;9.846;2023-02-15T09:41:24;26.67;;;23.93;;
9500;SDS011;4788;52.438;9.846;2023-02-15T09:46:27;33.23;;;27.93;;
9500;SDS011;4788;52.438;9.846;2023-02-15T09:49:05;40.77;;;30.77;;
9500;SDS011;4788;52.438;9.846;2023-02-15T09:54:08;33.80;;;26.63;;
9500;SDS011;4788;52.438;9.846;2023-02-15T09:56:38;33.33;;;26.27;;
9500;SDS011;4788;52.438;9.846;2023-02-15T09:59:13;32.07;;;25.83;;
9500;SDS011;4788;52.438;9.846;2023-02-15T10:06:44;30.73;;;26.33;;
9500;SDS011;4788;52.438;9.846;2023-02-15T10:17:18;59.37;;;39.67;;
9500;SDS011;4788;52.438;9.846;2023-02-15T10:25:34;45.47;;;34.07;;
9500;SDS011;4788;52.438;9.846;2023-02-15T10:27:47;60.63;;;40.73;;
9500;SDS011;4788;52.438;9.846;2023-02-15T10:30:14;54.90;;;36.73;;
9500;SDS011;4788;52.438;9.846;2023-02-15T10:32:46;50.87;;;34.43;;
9500;SDS011;4788;52.438;9.846;2023-02-15T10:35:22;50.27;;;36.03;;
9500;SDS011;4788;52.438;9.846;2023-02-15T10:40:57;50.87;;;34.97;;
9500;SDS011;4788;52.438;9.846;2023-02-15T10:43:39;53.67;;;35.67;;
9500;SDS011;4788;52.438;9.846;2023-02-15T10:46:13;62.37;;;39.67;;
9500;SDS011;4788;52.438;9.846;2023-02-15T10:48:53;72.00;;;43.40;;
9500;SDS011;4788;52.438;9.846;2023-02-15T10:51:33;62.67;;;40.00;;
9500;SDS011;4788;52.438;9.846;2023-02-15T10:57:21;66.73;;;44.00;;
9500;SDS011;4788;52.438;9.846;2023-02-15T10:59:31;59.53;;;39.53;;
9500;SDS011;4788;52.438;9.846;2023-02-15T11:02:02;63.83;;;39.73;;
9500;SDS011;4788;52.438;9.846;2023-02-15T11:04:47;68.43;;;41.30;;
9500;SDS011;4788;52.438;9.846;2023-02-15T11:09:46;91.63;;;54.03;;
9500;SDS011;4788;52.438;9.846;2023-02-15T11:12:16;87.13;;;50.53;;
9500;SDS011;4788;52.438;9.846;2023-02-15T11:17:40;70.33;;;43.87;;
9500;SDS011;4788;52.438;9.846;2023-02-15T11:20:18;81.97;;;51.43;;
9500;SDS011;4788;52.438;9.846;2023-02-15T11:22:47;83.63;;;50.57;;
9500;SDS011;4788;52.438;9.846;2023-02-15T11:25:16;84.57;;;49.63;;
9500;SDS011;4788;52.438;9.846;2023-02-15T11:27:42;83.93;;;51.13;;
9500;SDS011;4788;52.438;9.846;2023-02-15T11:30:10;84.20;;;51.67;;
9500;SDS011;4788;52.438;9.846;2023-02-15T11:32:38;95.30;;;56.87;;
9500;SDS011;4788;52.438;9.846;2023-02-15T11:37:44;99.97;;;57.97;;
9500;SDS011;4788;52.438;9.846;2023-02-15T11:40:30;90.33;;;51.77;;
9500;SDS011;4788;52.438;9.846;2023-02-15T11:43:03;92.23;;;52.43;;
9500;SDS011;4788;52.438;9.846;2023-02-15T11:45:31;86.27;;;52.00;;
9500;SDS011;4788;52.438;9.846;2023-02-15T11:47:59;85.07;;;50.90;;
9500;SDS011;4788;52.438;9.846;2023-02-15T11:50:26;87.20;;;51.33;;
9500;SDS011;4788;52.438;9.846;2023-02-15T11:52:55;92.27;;;53.30;;
9500;SDS011;4788;52.438;9.846;2023-02-15T11:55:22;87.80;;;52.57;;
9500;SDS011;4788;52.438;9.846;2023-02-15T12:03:01;64.23;;;40.90;;
9500;SDS011;4788;52.438;9.846;2023-02-15T12:05:27;86.23;;;49.90;;
9500;SDS011;4788;52.438;9.846;2023-02-15T12:08:03;86.67;;;52.00;;
9500;SDS011;4788;52.438;9.846;2023-02-15T12:10:36;72.63;;;43.77;;
9500;SDS011;4788;52.438;9.846;2023-02-15T12:15:35;78.20;;;46.93;;
9500;SDS011;4788;52.438;9.846;2023-02-15T12:18:02;76.17;;;46.60;;
9500;SDS011;4788;52.438;9.846;2023-02-15T12:20:29;60.20;;;40.33;;
9500;SDS011;4788;52.438;9.846;2023-02-15T12:23:03;74.47;;;47.00;;
9500;SDS011;4788;52.438;9.846;2023-02-15T12:30:55;69.20;;;44.83;;
9500;SDS011;4788;52.438;9.846;2023-02-15T12:33:26;54.80;;;35.97;;
9500;SDS011;4788;52.438;9.846;2023-02-15T12:36:00;65.53;;;41.90;;
9500;SDS011;4788;52.438;9.846;2023-02-15T12:38:28;64.63;;;41.90;;
9500;SDS011;4788;52.438;9.846;2023-02-15T12:40:59;61.03;;;39.17;;
9500;SDS011;4788;52.438;9.846;2023-02-15T12:43:32;62.83;;;41.53;;
9500;SDS011;4788;52.438;9.846;2023-02-15T12:48:40;75.17;;;48.13;;
9500;SDS011;4788;52.438;9.846;2023-02-15T12:51:07;68.00;;;43.40;;
9500;SDS011;4788;52.438;9.846;2023-02-15T12:53:34;61.50;;;39.50;;
9500;SDS011;4788;52.438;9.846;2023-02-15T12:58:28;70.30;;;43.13;;
9500;SDS011;4788;52.438;9.846;2023-02-15T13:01:02;64.00;;;40.33;;
9500;SDS011;4788;52.438;9.846;2023-02-15T13:03:29;62.13;;;38.47;;
9500;SDS011;4788;52.438;9.846;2023-02-15T13:05:55;58.60;;;38.10;;
9500;SDS011;4788;52.438;9.846;2023-02-15T13:08:27;61.87;;;40.00;;
9500;SDS011;4788;52.438;9.846;2023-02-15T13:10:54;68.67;;;43.83;;
9500;SDS011;4788;52.438;9.846;2023-02-15T13:13:22;67.33;;;41.73;;
9500;SDS011;4788;52.438;9.846;2023-02-15T13:15:54;64.03;;;40.27;;
9500;SDS011;4788;52.438;9.846;2023-02-15T13:20:49;67.00;;;41.47;;
9500;SDS011;4788;52.438;9.846;2023-02-15T13:25:47;67.73;;;43.37;;
9500;SDS011;4788;52.438;9.846;2023-02-15T13:28:16;47.47;;;32.40;;
9500;SDS011;4788;52.438;9.846;2023-02-15T13:30:43;60.70;;;41.00;;
9500;SDS011;4788;52.438;9.846;2023-02-15T13:33:13;47.33;;;32.53;;
9500;SDS011;4788;52.438;9.846;2023-02-15T13:35:47;49.83;;;33.23;;
9500;SDS011;4788;52.438;9.846;2023-02-15T13:38:20;49.53;;;31.70;;
9500;SDS011;4788;52.438;9.846;2023-02-15T13:40:53;63.57;;;41.33;;
9500;SDS011;4788;52.438;9.846;2023-02-15T13:45:54;58.40;;;40.23;;
9500;SDS011;4788;52.438;9.846;2023-02-15T13:48:32;53.47;;;37.10;;
9500;SDS011;4788;52.438;9.846;2023-02-15T13:51:08;55.83;;;38.03;;
9500;SDS011;4788;52.438;9.846;2023-02-15T13:53:41;46.57;;;32.20;;
9500;SDS011;4788;52.438;9.846;2023-02-15T13:56:17;51.40;;;36.70;;
9500;SDS011;4788;52.438;9.846;2023-02-15T14:01:36;40.43;;;30.30;;
9500;SDS011;4788;52.438;9.846;2023-02-15T14:04:17;38.07;;;29.17;;
9500;SDS011;4788;52.438;9.846;2023-02-15T14:07:01;40.33;;;31.17;;
9500;SDS011;4788;52.438;9.846;2023-02-15T14:12:04;42.73;;;31.67;;
9500;SDS011;4788;52.438;9.846;2023-02-15T14:22:02;47.57;;;32.87;;
9500;SDS011;4788;52.438;9.846;2023-02-15T14:27:10;38.33;;;29.77;;
9500;SDS011;4788;52.438;9.846;2023-02-15T14:29:47;41.23;;;32.77;;
9500;SDS011;4788;52.438;9.846;2023-02-15T14:32:18;42.60;;;31.30;;
9500;SDS011;4788;52.438;9.846;2023-02-15T14:34:48;36.37;;;27.93;;
9500;SDS011;4788;52.438;9.846;2023-02-15T14:37:16;42.13;;;30.47;;
9500;SDS011;4788;52.438;9.846;2023-02-15T14:39:47;48.90;;;36.27;;
9500;SDS011;4788;52.438;9.846;2023-02-15T14:47:40;33.63;;;26.53;;
9500;SDS011;4788;52.438;9.846;2023-02-15T14:55:36;24.17;;;21.67;;
9500;SDS011;4788;52.438;9.846;2023-02-15T14:58:09;33.47;;;27.63;;
9500;SDS011;4788;52.438;9.846;2023-02-15T15:00:36;39.43;;;30.67;;
9500;SDS011;4788;52.438;9.846;2023-02-15T15:03:09;32.67;;;26.77;;
9500;SDS011;4788;52.438;9.846;2023-02-15T15:05:36;35.07;;;27.60;;
9500;SDS011;4788;52.438;9.846;2023-02-15T15:08:21;26.10;;;23.10;;
9500;SDS011;4788;52.438;9.846;2023-02-15T15:10:48;30.00;;;26.07;;
9500;SDS011;4788;52.438;9.846;2023-02-15T15:13:56;24.27;;;21.83;;
9500;SDS011;4788;52.438;9.846;2023-02-15T15:16:23;32.40;;;28.97;;
9500;SDS011;4788;52.438;9.846;2023-02-15T15:18:49;38.53;;;31.93;;
9500;SDS011;4788;52.438;9.846;2023-02-15T15:23:59;27.40;;;24.70;;
9500;SDS011;4788;52.438;9.846;2023-02-15T15:26:29;25.50;;;22.93;;
9500;SDS011;4788;52.438;9.846;2023-02-15T15:28:58;26.63;;;24.03;;
9500;SDS011;4788;52.438;9.846;2023-02-15T15:31:30;26.43;;;23.70;;
9500;SDS011;4788;52.438;9.846;2023-02-15T15:36:45;29.83;;;26.93;;
9500;SDS011;4788;52.438;9.846;2023-02-15T15:39:21;24.47;;;22.07;;
9500;SDS011;4788;52.438;9.846;2023-02-15T15:42:01;23.50;;;21.20;;
9500;SDS011;4788;52.438;9.846;2023-02-15T15:49:26;23.00;;;20.73;;
9500;SDS011;4788;52.438;9.846;2023-02-15T15:51:55;27.83;;;24.97;;
9500;SDS011;4788;52.438;9.846;2023-02-15T15:54:22;26.10;;;23.50;;
9500;SDS011;4788;52.438;9.846;2023-02-15T15:56:49;25.77;;;23.20;;
9500;SDS011;4788;52.438;9.846;2023-02-15T15:59:27;30.53;;;27.43;;
9500;SDS011;4788;52.438;9.846;2023-02-15T16:01:53;24.67;;;22.17;;
9500;SDS011;4788;52.438;9.846;2023-02-15T16:04:27;31.20;;;28.07;;
9500;SDS011;4788;52.438;9.846;2023-02-15T16:06:55;23.47;;;21.17;;
9500;SDS011;4788;52.438;9.846;2023-02-15T16:09:22;27.13;;;24.33;;
9500;SDS011;4788;52.438;9.846;2023-02-15T16:11:57;24.07;;;21.67;;
9500;SDS011;4788;52.438;9.846;2023-02-15T16:14:31;23.30;;;21.03;;
9500;SDS011;4788;52.438;9.846;2023-02-15T16:16:59;23.87;;;21.47;;
9500;SDS011;4788;52.438;9.846;2023-02-15T16:19:27;29.07;;;25.93;;
9500;SDS011;4788;52.438;9.846;2023-02-15T16:21:54;27.77;;;24.70;;
9500;SDS011;4788;52.438;9.846;2023-02-15T16:24:36;30.33;;;26.03;;
9500;SDS011;4788;52.438;9.846;2023-02-15T16:27:09;26.73;;;23.57;;
9500;SDS011;4788;52.438;9.846;2023-02-15T16:29:37;25.73;;;22.93;;
9500;SDS011;4788;52.438;9.846;2023-02-15T16:32:05;30.20;;;26.37;;
9500;SDS011;4788;52.438;9.846;2023-02-15T16:34:31;28.63;;;25.40;;
9500;SDS011;4788;52.438;9.846;2023-02-15T16:37:17;27.13;;;24.00;;
9500;SDS011;4788;52.438;9.846;2023-02-15T16:39:43;26.47;;;23.60;;
9500;SDS011;4788;52.438;9.846;2023-02-15T16:42:10;23.83;;;21.37;;
9500;SDS011;4788;52.438;9.846;2023-02-15T16:44:36;27.50;;;24.13;;
9500;SDS011;4788;52.438;9.846;2023-02-15T16:47:03;25.00;;;22.43;;
9500;SDS011;4788;52.438;9.846;2023-02-15T16:49:29;26.77;;;23.87;;
9500;SDS011;4788;52.438;9.846;2023-02-15T16:51:58;24.73;;;22.30;;
9500;SDS011;4788;52.438;9.846;2023-02-15T16:54:25;23.47;;;21.07;;
9500;SDS011;4788;52.438;9.846;2023-02-15T16:56:52;27.57;;;24.60;;
9500;SDS011;4788;52.438;9.846;2023-02-15T16:59:20;31.10;;;27.10;;
9500;SDS011;4788;52.438;9.846;2023-02-15T17:01:48;29.20;;;24.43;;
9500;SDS011;4788;52.438;9.846;2023-02-15T17:06:59;33.43;;;27.07;;
9500;SDS011;4788;52.438;9.846;2023-02-15T17:09:26;33.00;;;26.30;;
9500;SDS011;4788;52.438;9.846;2023-02-15T17:11:52;30.37;;;24.90;;
9500;SDS011;4788;52.438;9.846;2023-02-15T17:14:21;31.07;;;26.23;;
9500;SDS011;4788;52.438;9.846;2023-02-15T17:16:59;28.03;;;24.43;;
9500;SDS011;4788;52.438;9.846;2023-02-15T17:19:26;32.07;;;25.43;;
9500;SDS011;4788;52.438;9.846;2023-02-15T17:21:54;41.33;;;32.00;;